sensor_id;sensor_type;location;lat;lon;timestamp;P1;durP1;ratioP1;P2;durP2;ratioP2
57303;SDS011;43150;50.986;18.208;2023-03-23T00:01:00;12.10;;;9.00;;
57303;SDS011;43150;50.986;18.208;2023-03-23T00:03:26;10.90;;;6.30;;
57303;SDS011;43150;50.986;18.208;2023-03-23T00:06:00;10.40;;;7.80;;
57303;SDS011;43150;50.986;18.208;2023-03-23T00:08:32;10.70;;;8.50;;
57303;SDS011;43150;50.986;18.208;2023-03-23T00:10:58;11.80;;;8.80;;
57303;SDS011;43150;50.986;18.208;2023-03-23T00:13:27;10.90;;;6.60;;
57303;SDS011;43150;50.986;18.208;2023-03-23T00:15:53;13.30;;;10.20;;
57303;SDS011;43150;50.986;18.208;2023-03-23T00:18:19;13.60;;;10.30;;
57303;SDS011;43150;50.986;18.208;2023-03-23T00:20:52;14.10;;;11.30;;
57303;SDS011;43150;50.986;18.208;2023-03-23T00:23:20;13.80;;;7.70;;
57303;SDS011;43150;50.986;18.208;2023-03-23T00:25:49;13.10;;;10.50;;
57303;SDS011;43150;50.986;18.208;2023-03-23T00:28:15;11.50;;;9.20;;
57303;SDS011;43150;50.986;18.208;2023-03-23T00:30:41;10.50;;;6.50;;
57303;SDS011;43150;50.986;18.208;2023-03-23T00:33:07;13.90;;;8.30;;
57303;SDS011;43150;50.986;18.208;2023-03-23T00:35:33;13.30;;;9.80;;
57303;SDS011;43150;50.986;18.208;2023-03-23T00:38:01;13.50;;;9.90;;
57303;SDS011;43150;50.986;18.208;2023-03-23T00:40:27;12.40;;;10.10;;
57303;SDS011;43150;50.986;18.208;2023-03-23T00:42:53;14.40;;;10.40;;
57303;SDS011;43150;50.986;18.208;2023-03-23T00:45:18;17.10;;;9.80;;
57303;SDS011;43150;50.986;18.208;2023-03-23T00:47:44;28.40;;;13.60;;
57303;SDS011;43150;50.986;18.208;2023-03-23T00:50:12;28.70;;;20.60;;
57303;SDS011;43150;50.986;18.208;2023-03-23T00:52:39;31.70;;;20.60;;
57303;SDS011;43150;50.986;18.208;2023-03-23T00:55:05;25.80;;;17.80;;
57303;SDS011;43150;50.986;18.208;2023-03-23T00:57:31;24.40;;;17.10;;
57303;SDS011;43150;50.986;18.208;2023-03-23T00:59:57;21.00;;;11.00;;
57303;SDS011;43150;50.986;18.208;2023-03-23T01:02:24;20.80;;;14.30;;
57303;SDS011;43150;50.986;18.208;2023-03-23T01:04:52;16.50;;;10.00;;
57303;SDS011;43150;50.986;18.208;2023-03-23T01:07:18;17.30;;;13.90;;
57303;SDS011;43150;50.986;18.208;2023-03-23T01:09:43;16.00;;;13.20;;
57303;SDS011;43150;50.986;18.208;2023-03-23T01:12:10;15.00;;;12.30;;
57303;SDS011;43150;50.986;18.208;2023-03-23T01:14:36;13.50;;;8.70;;
57303;SDS011;43150;50.986;18.208;2023-03-23T01:17:02;17.80;;;13.30;;
57303;SDS011;43150;50.986;18.208;2023-03-23T01:19:28;26.10;;;17.00;;
57303;SDS011;43150;50.986;18.208;2023-03-23T01:21:53;39.20;;;23.00;;
57303;SDS011;43150;50.986;18.208;2023-03-23T01:24:19;37.80;;;15.00;;
57303;SDS011;43150;50.986;18.208;2023-03-23T01:26:45;42.10;;;24.80;;
57303;SDS011;43150;50.986;18.208;2023-03-23T01:29:10;36.10;;;21.80;;
57303;SDS011;43150;50.986;18.208;2023-03-23T01:31:36;30.90;;;18.60;;
57303;SDS011;43150;50.986;18.208;2023-03-23T01:34:02;23.60;;;14.40;;
57303;SDS011;43150;50.986;18.208;2023-03-23T01:36:28;21.60;;;8.70;;
57303;SDS011;43150;50.986;18.208;2023-03-23T01:38:58;15.00;;;8.90;;
57303;SDS011;43150;50.986;18.208;2023-03-23T01:41:24;17.00;;;12.50;;
57303;SDS011;43150;50.986;18.208;2023-03-23T01:44:04;16.20;;;11.50;;
57303;SDS011;43150;50.986;18.208;2023-03-23T01:46:33;16.00;;;8.50;;
57303;SDS011;43150;50.986;18.208;2023-03-23T01:49:01;12.50;;;8.10;;
57303;SDS011;43150;50.986;18.208;2023-03-23T01:51:31;13.90;;;9.20;;
57303;SDS011;43150;50.986;18.208;2023-03-23T01:53:59;13.10;;;8.00;;
57303;SDS011;43150;50.986;18.208;2023-03-23T01:56:27;13.50;;;8.50;;
57303;SDS011;43150;50.986;18.208;2023-03-23T01:58:55;11.40;;;9.50;;
57303;SDS011;43150;50.986;18.208;2023-03-23T02:01:21;12.50;;;9.70;;
57303;SDS011;43150;50.986;18.208;2023-03-23T02:03:52;11.70;;;9.80;;
57303;SDS011;43150;50.986;18.208;2023-03-23T02:06:20;12.60;;;8.90;;
57303;SDS011;43150;50.986;18.208;2023-03-23T02:08:46;11.30;;;9.10;;
57303;SDS011;43150;50.986;18.208;2023-03-23T02:11:21;11.80;;;9.30;;
57303;SDS011;43150;50.986;18.208;2023-03-23T02:13:47;11.80;;;7.10;;
57303;SDS011;43150;50.986;18.208;2023-03-23T02:24:18;11.40;;;7.30;;
57303;SDS011;43150;50.986;18.208;2023-03-23T02:27:02;11.30;;;7.40;;
57303;SDS011;43150;50.986;18.208;2023-03-23T02:32:08;10.70;;;8.80;;
57303;SDS011;43150;50.986;18.208;2023-03-23T02:34:39;12.30;;;7.50;;
57303;SDS011;43150;50.986;18.208;2023-03-23T02:37:24;12.00;;;9.40;;
57303;SDS011;43150;50.986;18.208;2023-03-23T02:40:12;12.50;;;9.70;;
57303;SDS011;43150;50.986;18.208;2023-03-23T02:42:42;11.30;;;9.80;;
57303;SDS011;43150;50.986;18.208;2023-03-23T02:45:10;10.60;;;7.50;;
57303;SDS011;43150;50.986;18.208;2023-03-23T02:47:37;10.40;;;7.00;;
57303;SDS011;43150;50.986;18.208;2023-03-23T02:50:04;11.30;;;9.60;;
57303;SDS011;43150;50.986;18.208;2023-03-23T02:52:32;10.70;;;9.50;;
57303;SDS011;43150;50.986;18.208;2023-03-23T02:55:00;13.20;;;7.30;;
57303;SDS011;43150;50.986;18.208;2023-03-23T02:57:27;10.40;;;7.70;;
57303;SDS011;43150;50.986;18.208;2023-03-23T02:59:53;11.20;;;9.90;;
57303;SDS011;43150;50.986;18.208;2023-03-23T03:02:21;13.70;;;8.60;;
57303;SDS011;43150;50.986;18.208;2023-03-23T03:04:53;12.00;;;8.80;;
57303;SDS011;43150;50.986;18.208;2023-03-23T03:18:04;12.60;;;11.00;;
57303;SDS011;43150;50.986;18.208;2023-03-23T03:20:32;11.60;;;7.80;;
57303;SDS011;43150;50.986;18.208;2023-03-23T03:23:00;11.50;;;7.90;;
57303;SDS011;43150;50.986;18.208;2023-03-23T03:25:26;12.20;;;7.30;;
57303;SDS011;43150;50.986;18.208;2023-03-23T03:27:54;10.80;;;9.30;;
57303;SDS011;43150;50.986;18.208;2023-03-23T03:30:25;10.90;;;7.20;;
57303;SDS011;43150;50.986;18.208;2023-03-23T03:32:55;13.30;;;7.80;;
57303;SDS011;43150;50.986;18.208;2023-03-23T03:35:21;11.80;;;9.60;;
57303;SDS011;43150;50.986;18.208;2023-03-23T03:37:48;10.20;;;8.20;;
57303;SDS011;43150;50.986;18.208;2023-03-23T03:40:15;10.40;;;7.80;;
57303;SDS011;43150;50.986;18.208;2023-03-23T03:42:42;13.00;;;7.30;;
57303;SDS011;43150;50.986;18.208;2023-03-23T03:45:09;10.70;;;7.00;;
57303;SDS011;43150;50.986;18.208;2023-03-23T03:47:35;10.00;;;7.10;;
57303;SDS011;43150;50.986;18.208;2023-03-23T03:50:01;12.10;;;9.90;;
57303;SDS011;43150;50.986;18.208;2023-03-23T03:52:26;12.70;;;7.90;;
57303;SDS011;43150;50.986;18.208;2023-03-23T03:54:52;14.00;;;8.00;;
57303;SDS011;43150;50.986;18.208;2023-03-23T03:57:18;10.70;;;7.60;;
57303;SDS011;43150;50.986;18.208;2023-03-23T03:59:44;11.10;;;7.50;;
57303;SDS011;43150;50.986;18.208;2023-03-23T04:02:11;10.40;;;9.30;;
57303;SDS011;43150;50.986;18.208;2023-03-23T04:04:39;14.20;;;7.70;;
57303;SDS011;43150;50.986;18.208;2023-03-23T04:07:05;13.80;;;8.00;;
57303;SDS011;43150;50.986;18.208;2023-03-23T04:09:31;12.20;;;8.00;;
57303;SDS011;43150;50.986;18.208;2023-03-23T04:11:56;13.80;;;8.00;;
57303;SDS011;43150;50.986;18.208;2023-03-23T04:14:22;11.40;;;10.20;;
57303;SDS011;43150;50.986;18.208;2023-03-23T04:16:47;10.70;;;8.40;;
57303;SDS011;43150;50.986;18.208;2023-03-23T04:19:21;11.50;;;8.10;;
57303;SDS011;43150;50.986;18.208;2023-03-23T04:21:47;10.90;;;9.80;;
57303;SDS011;43150;50.986;18.208;2023-03-23T04:24:15;11.00;;;8.10;;
57303;SDS011;43150;50.986;18.208;2023-03-23T04:26:41;15.60;;;9.50;;
57303;SDS011;43150;50.986;18.208;2023-03-23T04:29:10;28.20;;;25.50;;
57303;SDS011;43150;50.986;18.208;2023-03-23T04:31:38;29.30;;;20.00;;
57303;SDS011;43150;50.986;18.208;2023-03-23T04:34:05;35.20;;;26.70;;
57303;SDS011;43150;50.986;18.208;2023-03-23T04:36:31;20.90;;;15.00;;
57303;SDS011;43150;50.986;18.208;2023-03-23T04:38:59;28.70;;;25.70;;
57303;SDS011;43150;50.986;18.208;2023-03-23T04:41:25;25.80;;;17.40;;
57303;SDS011;43150;50.986;18.208;2023-03-23T04:43:51;16.80;;;15.10;;
57303;SDS011;43150;50.986;18.208;2023-03-23T04:46:19;18.60;;;15.70;;
57303;SDS011;43150;50.986;18.208;2023-03-23T04:48:46;16.10;;;12.10;;
57303;SDS011;43150;50.986;18.208;2023-03-23T04:51:12;18.00;;;12.70;;
57303;SDS011;43150;50.986;18.208;2023-03-23T04:53:38;15.90;;;10.60;;
57303;SDS011;43150;50.986;18.208;2023-03-23T04:56:03;21.00;;;18.80;;
57303;SDS011;43150;50.986;18.208;2023-03-23T04:58:31;33.60;;;30.20;;
57303;SDS011;43150;50.986;18.208;2023-03-23T05:01:02;33.00;;;25.30;;
57303;SDS011;43150;50.986;18.208;2023-03-23T05:03:29;14.40;;;10.50;;
57303;SDS011;43150;50.986;18.208;2023-03-23T05:05:56;16.70;;;10.50;;
57303;SDS011;43150;50.986;18.208;2023-03-23T05:08:22;13.70;;;10.30;;
57303;SDS011;43150;50.986;18.208;2023-03-23T05:10:52;21.60;;;15.30;;
57303;SDS011;43150;50.986;18.208;2023-03-23T05:13:18;26.10;;;23.40;;
57303;SDS011;43150;50.986;18.208;2023-03-23T05:15:46;16.30;;;14.30;;
57303;SDS011;43150;50.986;18.208;2023-03-23T05:18:12;17.10;;;11.70;;
57303;SDS011;43150;50.986;18.208;2023-03-23T05:20:38;16.90;;;12.60;;
57303;SDS011;43150;50.986;18.208;2023-03-23T05:23:04;16.60;;;13.10;;
57303;SDS011;43150;50.986;18.208;2023-03-23T05:25:30;18.20;;;16.60;;
57303;SDS011;43150;50.986;18.208;2023-03-23T05:27:57;15.50;;;11.90;;
57303;SDS011;43150;50.986;18.208;2023-03-23T05:30:24;16.20;;;14.60;;
57303;SDS011;43150;50.986;18.208;2023-03-23T05:32:50;17.90;;;13.50;;
57303;SDS011;43150;50.986;18.208;2023-03-23T05:35:16;21.20;;;13.10;;
57303;SDS011;43150;50.986;18.208;2023-03-23T05:37:42;18.90;;;14.80;;
57303;SDS011;43150;50.986;18.208;2023-03-23T05:40:09;19.20;;;16.70;;
57303;SDS011;43150;50.986;18.208;2023-03-23T05:42:37;21.80;;;19.40;;
57303;SDS011;43150;50.986;18.208;2023-03-23T05:45:05;30.60;;;25.40;;
57303;SDS011;43150;50.986;18.208;2023-03-23T05:47:31;23.70;;;20.30;;
57303;SDS011;43150;50.986;18.208;2023-03-23T05:49:57;18.20;;;16.30;;
57303;SDS011;43150;50.986;18.208;2023-03-23T05:52:30;20.40;;;17.50;;
57303;SDS011;43150;50.986;18.208;2023-03-23T05:54:58;11.90;;;10.50;;
57303;SDS011;43150;50.986;18.208;2023-03-23T05:57:24;14.20;;;9.50;;
57303;SDS011;43150;50.986;18.208;2023-03-23T05:59:49;12.00;;;10.70;;
57303;SDS011;43150;50.986;18.208;2023-03-23T06:02:15;20.20;;;18.00;;
57303;SDS011;43150;50.986;18.208;2023-03-23T06:04:41;20.50;;;17.30;;
57303;SDS011;43150;50.986;18.208;2023-03-23T06:07:09;19.50;;;15.40;;
57303;SDS011;43150;50.986;18.208;2023-03-23T06:09:38;13.30;;;11.50;;
57303;SDS011;43150;50.986;18.208;2023-03-23T06:12:06;13.30;;;11.90;;
57303;SDS011;43150;50.986;18.208;2023-03-23T06:14:35;14.10;;;12.10;;
57303;SDS011;43150;50.986;18.208;2023-03-23T06:17:00;20.80;;;15.70;;
57303;SDS011;43150;50.986;18.208;2023-03-23T06:19:26;17.00;;;14.30;;
57303;SDS011;43150;50.986;18.208;2023-03-23T06:21:53;26.80;;;19.10;;
57303;SDS011;43150;50.986;18.208;2023-03-23T06:24:19;27.00;;;20.10;;
57303;SDS011;43150;50.986;18.208;2023-03-23T06:26:46;33.10;;;23.30;;
57303;SDS011;43150;50.986;18.208;2023-03-23T06:29:13;24.00;;;18.60;;
57303;SDS011;43150;50.986;18.208;2023-03-23T06:31:45;24.80;;;16.40;;
57303;SDS011;43150;50.986;18.208;2023-03-23T06:34:16;20.00;;;15.60;;
57303;SDS011;43150;50.986;18.208;2023-03-23T06:36:44;16.60;;;12.00;;
57303;SDS011;43150;50.986;18.208;2023-03-23T06:39:10;14.10;;;9.90;;
57303;SDS011;43150;50.986;18.208;2023-03-23T06:41:36;14.90;;;10.30;;
57303;SDS011;43150;50.986;18.208;2023-03-23T06:44:05;12.60;;;8.60;;
57303;SDS011;43150;50.986;18.208;2023-03-23T06:46:32;9.70;;;8.00;;
57303;SDS011;43150;50.986;18.208;2023-03-23T06:48:57;10.20;;;8.30;;
57303;SDS011;43150;50.986;18.208;2023-03-23T06:51:23;11.50;;;9.20;;
57303;SDS011;43150;50.986;18.208;2023-03-23T06:53:52;12.30;;;8.30;;
57303;SDS011;43150;50.986;18.208;2023-03-23T06:56:17;9.10;;;7.60;;
57303;SDS011;43150;50.986;18.208;2023-03-23T06:58:43;8.70;;;7.80;;
57303;SDS011;43150;50.986;18.208;2023-03-23T07:01:10;9.70;;;8.70;;
57303;SDS011;43150;50.986;18.208;2023-03-23T07:03:36;10.20;;;8.20;;
57303;SDS011;43150;50.986;18.208;2023-03-23T07:06:03;9.60;;;8.60;;
57303;SDS011;43150;50.986;18.208;2023-03-23T07:08:29;10.10;;;8.50;;
57303;SDS011;43150;50.986;18.208;2023-03-23T07:10:55;10.80;;;9.70;;
57303;SDS011;43150;50.986;18.208;2023-03-23T07:13:21;10.00;;;8.60;;
57303;SDS011;43150;50.986;18.208;2023-03-23T07:15:47;9.40;;;8.00;;
57303;SDS011;43150;50.986;18.208;2023-03-23T07:18:14;10.70;;;8.30;;
57303;SDS011;43150;50.986;18.208;2023-03-23T07:20:40;15.40;;;8.40;;
57303;SDS011;43150;50.986;18.208;2023-03-23T07:23:07;13.10;;;9.00;;
57303;SDS011;43150;50.986;18.208;2023-03-23T07:25:33;10.80;;;8.90;;
57303;SDS011;43150;50.986;18.208;2023-03-23T07:27:59;13.40;;;8.40;;
57303;SDS011;43150;50.986;18.208;2023-03-23T07:30:26;13.30;;;8.60;;
57303;SDS011;43150;50.986;18.208;2023-03-23T07:32:52;9.60;;;8.60;;
57303;SDS011;43150;50.986;18.208;2023-03-23T07:35:18;11.40;;;10.00;;
57303;SDS011;43150;50.986;18.208;2023-03-23T07:37:44;9.70;;;8.70;;
57303;SDS011;43150;50.986;18.208;2023-03-23T07:40:24;11.70;;;9.10;;
57303;SDS011;43150;50.986;18.208;2023-03-23T07:42:53;10.60;;;9.50;;
57303;SDS011;43150;50.986;18.208;2023-03-23T07:45:20;11.80;;;9.30;;
57303;SDS011;43150;50.986;18.208;2023-03-23T07:47:46;11.30;;;8.70;;
57303;SDS011;43150;50.986;18.208;2023-03-23T07:50:12;12.70;;;8.30;;
57303;SDS011;43150;50.986;18.208;2023-03-23T07:52:39;12.80;;;10.60;;
57303;SDS011;43150;50.986;18.208;2023-03-23T07:55:07;10.60;;;8.10;;
57303;SDS011;43150;50.986;18.208;2023-03-23T07:57:33;12.60;;;8.50;;
57303;SDS011;43150;50.986;18.208;2023-03-23T07:59:59;10.50;;;7.50;;
57303;SDS011;43150;50.986;18.208;2023-03-23T08:02:26;10.10;;;7.80;;
57303;SDS011;43150;50.986;18.208;2023-03-23T08:04:57;10.10;;;7.00;;
57303;SDS011;43150;50.986;18.208;2023-03-23T08:07:26;8.20;;;7.10;;
57303;SDS011;43150;50.986;18.208;2023-03-23T08:09:51;10.30;;;6.30;;
57303;SDS011;43150;50.986;18.208;2023-03-23T08:12:20;10.30;;;7.50;;
57303;SDS011;43150;50.986;18.208;2023-03-23T08:14:46;8.90;;;6.60;;
57303;SDS011;43150;50.986;18.208;2023-03-23T08:17:13;10.70;;;7.50;;
57303;SDS011;43150;50.986;18.208;2023-03-23T08:19:39;11.50;;;7.30;;
57303;SDS011;43150;50.986;18.208;2023-03-23T08:22:05;8.10;;;7.00;;
57303;SDS011;43150;50.986;18.208;2023-03-23T08:24:31;8.70;;;6.50;;
57303;SDS011;43150;50.986;18.208;2023-03-23T08:26:59;9.70;;;5.80;;
57303;SDS011;43150;50.986;18.208;2023-03-23T08:29:25;7.60;;;5.40;;
57303;SDS011;43150;50.986;18.208;2023-03-23T08:31:51;9.10;;;5.60;;
57303;SDS011;43150;50.986;18.208;2023-03-23T08:34:16;6.30;;;5.30;;
57303;SDS011;43150;50.986;18.208;2023-03-23T08:36:42;5.30;;;4.80;;
57303;SDS011;43150;50.986;18.208;2023-03-23T08:39:09;7.60;;;5.20;;
57303;SDS011;43150;50.986;18.208;2023-03-23T08:41:35;6.30;;;5.10;;
57303;SDS011;43150;50.986;18.208;2023-03-23T08:44:03;7.80;;;5.10;;
57303;SDS011;43150;50.986;18.208;2023-03-23T08:46:30;7.40;;;4.80;;
57303;SDS011;43150;50.986;18.208;2023-03-23T08:48:56;5.90;;;5.10;;
57303;SDS011;43150;50.986;18.208;2023-03-23T08:51:21;7.90;;;5.30;;
57303;SDS011;43150;50.986;18.208;2023-03-23T08:53:47;6.70;;;5.30;;
57303;SDS011;43150;50.986;18.208;2023-03-23T08:56:14;6.70;;;5.00;;
57303;SDS011;43150;50.986;18.208;2023-03-23T08:58:40;6.90;;;5.00;;
57303;SDS011;43150;50.986;18.208;2023-03-23T09:01:06;6.60;;;4.60;;
57303;SDS011;43150;50.986;18.208;2023-03-23T09:03:32;5.90;;;4.80;;
57303;SDS011;43150;50.986;18.208;2023-03-23T09:05:59;7.20;;;4.80;;
57303;SDS011;43150;50.986;18.208;2023-03-23T09:08:26;7.10;;;4.90;;
57303;SDS011;43150;50.986;18.208;2023-03-23T09:10:54;5.50;;;4.40;;
57303;SDS011;43150;50.986;18.208;2023-03-23T09:13:26;6.40;;;4.60;;
57303;SDS011;43150;50.986;18.208;2023-03-23T09:15:52;6.00;;;4.00;;
57303;SDS011;43150;50.986;18.208;2023-03-23T09:18:18;5.60;;;4.20;;
57303;SDS011;43150;50.986;18.208;2023-03-23T09:20:44;4.30;;;3.90;;
57303;SDS011;43150;50.986;18.208;2023-03-23T09:23:14;6.40;;;4.20;;
57303;SDS011;43150;50.986;18.208;2023-03-23T09:25:43;5.90;;;4.40;;
57303;SDS011;43150;50.986;18.208;2023-03-23T09:28:09;4.90;;;4.40;;
57303;SDS011;43150;50.986;18.208;2023-03-23T09:30:35;5.00;;;3.60;;
57303;SDS011;43150;50.986;18.208;2023-03-23T09:33:02;4.50;;;3.80;;
57303;SDS011;43150;50.986;18.208;2023-03-23T09:35:28;5.50;;;3.60;;
57303;SDS011;43150;50.986;18.208;2023-03-23T09:37:55;5.90;;;3.80;;
57303;SDS011;43150;50.986;18.208;2023-03-23T09:40:25;5.20;;;3.60;;
57303;SDS011;43150;50.986;18.208;2023-03-23T09:50:22;4.20;;;3.10;;
57303;SDS011;43150;50.986;18.208;2023-03-23T10:00:57;2.50;;;2.20;;
57303;SDS011;43150;50.986;18.208;2023-03-23T10:03:26;4.20;;;3.20;;
57303;SDS011;43150;50.986;18.208;2023-03-23T10:05:54;4.80;;;3.80;;
57303;SDS011;43150;50.986;18.208;2023-03-23T10:08:24;4.00;;;3.00;;
57303;SDS011;43150;50.986;18.208;2023-03-23T10:16:07;4.70;;;3.10;;
57303;SDS011;43150;50.986;18.208;2023-03-23T10:18:45;5.10;;;3.40;;
57303;SDS011;43150;50.986;18.208;2023-03-23T10:21:16;4.60;;;2.40;;
57303;SDS011;43150;50.986;18.208;2023-03-23T10:26:21;6.80;;;2.50;;
57303;SDS011;43150;50.986;18.208;2023-03-23T10:28:49;7.20;;;2.60;;
57303;SDS011;43150;50.986;18.208;2023-03-23T10:31:20;5.40;;;3.20;;
57303;SDS011;43150;50.986;18.208;2023-03-23T10:33:48;3.60;;;2.00;;
57303;SDS011;43150;50.986;18.208;2023-03-23T10:41:28;3.00;;;2.20;;
57303;SDS011;43150;50.986;18.208;2023-03-23T10:43:54;3.90;;;1.90;;
57303;SDS011;43150;50.986;18.208;2023-03-23T10:46:22;3.40;;;1.90;;
57303;SDS011;43150;50.986;18.208;2023-03-23T10:48:51;6.20;;;1.90;;
57303;SDS011;43150;50.986;18.208;2023-03-23T10:51:19;4.00;;;1.90;;
57303;SDS011;43150;50.986;18.208;2023-03-23T10:53:50;2.90;;;1.70;;
57303;SDS011;43150;50.986;18.208;2023-03-23T10:56:26;3.80;;;1.60;;
57303;SDS011;43150;50.986;18.208;2023-03-23T10:58:52;2.80;;;1.70;;
57303;SDS011;43150;50.986;18.208;2023-03-23T11:01:19;2.10;;;1.60;;
57303;SDS011;43150;50.986;18.208;2023-03-23T11:03:46;2.50;;;1.50;;
57303;SDS011;43150;50.986;18.208;2023-03-23T11:06:24;3.50;;;1.50;;
57303;SDS011;43150;50.986;18.208;2023-03-23T11:08:52;2.60;;;1.50;;
57303;SDS011;43150;50.986;18.208;2023-03-23T11:11:28;4.90;;;1.90;;
57303;SDS011;43150;50.986;18.208;2023-03-23T11:13:59;1.90;;;1.50;;
57303;SDS011;43150;50.986;18.208;2023-03-23T11:16:30;2.10;;;1.40;;
57303;SDS011;43150;50.986;18.208;2023-03-23T11:19:11;2.90;;;1.50;;
57303;SDS011;43150;50.986;18.208;2023-03-23T11:21:37;2.20;;;1.10;;
57303;SDS011;43150;50.986;18.208;2023-03-23T11:24:04;2.40;;;2.10;;
57303;SDS011;43150;50.986;18.208;2023-03-23T11:26:33;3.70;;;1.50;;
57303;SDS011;43150;50.986;18.208;2023-03-23T11:29:09;5.90;;;1.60;;
57303;SDS011;43150;50.986;18.208;2023-03-23T11:31:44;9.40;;;2.20;;
57303;SDS011;43150;50.986;18.208;2023-03-23T11:34:14;9.20;;;2.40;;
57303;SDS011;43150;50.986;18.208;2023-03-23T11:36:43;6.90;;;4.50;;
57303;SDS011;43150;50.986;18.208;2023-03-23T11:39:19;7.80;;;4.20;;
57303;SDS011;43150;50.986;18.208;2023-03-23T11:41:46;3.40;;;1.80;;
57303;SDS011;43150;50.986;18.208;2023-03-23T11:44:14;6.50;;;3.90;;
57303;SDS011;43150;50.986;18.208;2023-03-23T11:49:25;7.20;;;4.00;;
57303;SDS011;43150;50.986;18.208;2023-03-23T11:51:56;1.90;;;1.50;;
57303;SDS011;43150;50.986;18.208;2023-03-23T11:54:29;2.70;;;1.80;;
57303;SDS011;43150;50.986;18.208;2023-03-23T11:56:56;4.80;;;2.20;;
57303;SDS011;43150;50.986;18.208;2023-03-23T11:59:32;2.10;;;1.60;;
57303;SDS011;43150;50.986;18.208;2023-03-23T12:12:13;3.40;;;2.20;;
57303;SDS011;43150;50.986;18.208;2023-03-23T12:17:25;2.80;;;1.70;;
57303;SDS011;43150;50.986;18.208;2023-03-23T12:30:38;5.00;;;1.70;;
57303;SDS011;43150;50.986;18.208;2023-03-23T12:35:45;1.70;;;1.20;;
57303;SDS011;43150;50.986;18.208;2023-03-23T12:43:28;5.40;;;1.80;;
57303;SDS011;43150;50.986;18.208;2023-03-23T12:46:01;3.30;;;1.50;;
57303;SDS011;43150;50.986;18.208;2023-03-23T12:48:32;2.90;;;1.90;;
57303;SDS011;43150;50.986;18.208;2023-03-23T12:51:05;8.10;;;2.10;;
57303;SDS011;43150;50.986;18.208;2023-03-23T12:53:43;5.90;;;1.60;;
57303;SDS011;43150;50.986;18.208;2023-03-23T13:01:10;1.50;;;1.30;;
57303;SDS011;43150;50.986;18.208;2023-03-23T13:11:42;5.90;;;1.70;;
57303;SDS011;43150;50.986;18.208;2023-03-23T13:13:53;4.60;;;1.40;;
57303;SDS011;43150;50.986;18.208;2023-03-23T13:17:05;3.80;;;1.70;;
57303;SDS011;43150;50.986;18.208;2023-03-23T13:24:17;5.10;;;1.90;;
57303;SDS011;43150;50.986;18.208;2023-03-23T13:29:13;4.70;;;1.70;;
57303;SDS011;43150;50.986;18.208;2023-03-23T13:31:40;5.20;;;1.80;;
57303;SDS011;43150;50.986;18.208;2023-03-23T13:34:15;3.30;;;1.90;;
57303;SDS011;43150;50.986;18.208;2023-03-23T13:36:42;2.20;;;1.70;;
57303;SDS011;43150;50.986;18.208;2023-03-23T13:39:52;9.10;;;5.50;;
57303;SDS011;43150;50.986;18.208;2023-03-23T13:44:43;4.90;;;3.10;;
57303;SDS011;43150;50.986;18.208;2023-03-23T13:49:52;5.40;;;2.70;;
57303;SDS011;43150;50.986;18.208;2023-03-23T14:03:13;2.80;;;1.90;;
57303;SDS011;43150;50.986;18.208;2023-03-23T14:05:40;7.00;;;2.90;;
57303;SDS011;43150;50.986;18.208;2023-03-23T14:10:37;3.60;;;1.80;;
57303;SDS011;43150;50.986;18.208;2023-03-23T14:13:03;3.20;;;2.10;;
57303;SDS011;43150;50.986;18.208;2023-03-23T14:15:30;5.90;;;2.60;;
57303;SDS011;43150;50.986;18.208;2023-03-23T14:17:56;2.90;;;1.70;;
57303;SDS011;43150;50.986;18.208;2023-03-23T14:20:40;3.20;;;1.90;;
57303;SDS011;43150;50.986;18.208;2023-03-23T14:23:14;2.60;;;1.70;;
57303;SDS011;43150;50.986;18.208;2023-03-23T14:25:40;4.60;;;2.30;;
57303;SDS011;43150;50.986;18.208;2023-03-23T14:28:15;4.90;;;2.40;;
57303;SDS011;43150;50.986;18.208;2023-03-23T14:30:41;4.00;;;2.40;;
57303;SDS011;43150;50.986;18.208;2023-03-23T14:33:07;5.80;;;3.40;;
57303;SDS011;43150;50.986;18.208;2023-03-23T14:35:36;13.30;;;8.10;;
57303;SDS011;43150;50.986;18.208;2023-03-23T14:38:04;8.50;;;5.20;;
57303;SDS011;43150;50.986;18.208;2023-03-23T14:40:30;14.70;;;12.50;;
57303;SDS011;43150;50.986;18.208;2023-03-23T14:42:56;10.60;;;8.30;;
57303;SDS011;43150;50.986;18.208;2023-03-23T14:45:22;14.30;;;10.00;;
57303;SDS011;43150;50.986;18.208;2023-03-23T14:47:50;15.80;;;11.40;;
57303;SDS011;43150;50.986;18.208;2023-03-23T14:55:43;20.50;;;15.90;;
57303;SDS011;43150;50.986;18.208;2023-03-23T14:58:12;12.80;;;10.00;;
57303;SDS011;43150;50.986;18.208;2023-03-23T15:00:39;14.10;;;9.50;;
57303;SDS011;43150;50.986;18.208;2023-03-23T15:03:07;13.30;;;9.90;;
57303;SDS011;43150;50.986;18.208;2023-03-23T15:05:37;13.70;;;10.50;;
57303;SDS011;43150;50.986;18.208;2023-03-23T15:08:26;13.80;;;8.70;;
57303;SDS011;43150;50.986;18.208;2023-03-23T15:11:07;14.40;;;8.00;;
57303;SDS011;43150;50.986;18.208;2023-03-23T15:13:36;11.70;;;6.90;;
57303;SDS011;43150;50.986;18.208;2023-03-23T15:16:07;9.40;;;5.50;;
57303;SDS011;43150;50.986;18.208;2023-03-23T15:18:37;7.90;;;4.50;;
57303;SDS011;43150;50.986;18.208;2023-03-23T15:21:11;6.20;;;4.10;;
57303;SDS011;43150;50.986;18.208;2023-03-23T15:23:44;9.00;;;5.40;;
57303;SDS011;43150;50.986;18.208;2023-03-23T15:26:17;11.40;;;6.00;;
57303;SDS011;43150;50.986;18.208;2023-03-23T15:28:43;13.70;;;6.30;;
57303;SDS011;43150;50.986;18.208;2023-03-23T15:31:09;11.50;;;7.40;;
57303;SDS011;43150;50.986;18.208;2023-03-23T15:33:36;12.70;;;7.40;;
57303;SDS011;43150;50.986;18.208;2023-03-23T15:36:06;8.70;;;5.30;;
57303;SDS011;43150;50.986;18.208;2023-03-23T15:38:32;8.70;;;5.50;;
57303;SDS011;43150;50.986;18.208;2023-03-23T15:40:59;8.30;;;5.80;;
57303;SDS011;43150;50.986;18.208;2023-03-23T15:43:26;8.70;;;5.70;;
57303;SDS011;43150;50.986;18.208;2023-03-23T15:48:21;7.30;;;5.20;;
57303;SDS011;43150;50.986;18.208;2023-03-23T15:50:48;7.10;;;5.40;;
57303;SDS011;43150;50.986;18.208;2023-03-23T15:53:27;6.50;;;5.40;;
57303;SDS011;43150;50.986;18.208;2023-03-23T15:55:53;8.50;;;6.60;;
57303;SDS011;43150;50.986;18.208;2023-03-23T15:58:20;9.60;;;7.50;;
57303;SDS011;43150;50.986;18.208;2023-03-23T16:00:48;17.20;;;14.10;;
57303;SDS011;43150;50.986;18.208;2023-03-23T16:03:23;24.30;;;20.50;;
57303;SDS011;43150;50.986;18.208;2023-03-23T16:05:52;55.00;;;46.50;;
57303;SDS011;43150;50.986;18.208;2023-03-23T16:08:17;58.00;;;40.50;;
57303;SDS011;43150;50.986;18.208;2023-03-23T16:10:43;49.20;;;29.70;;
57303;SDS011;43150;50.986;18.208;2023-03-23T16:13:08;15.00;;;9.00;;
57303;SDS011;43150;50.986;18.208;2023-03-23T16:15:34;12.40;;;8.40;;
57303;SDS011;43150;50.986;18.208;2023-03-23T16:18:00;11.90;;;8.00;;
57303;SDS011;43150;50.986;18.208;2023-03-23T16:20:27;10.50;;;7.30;;
57303;SDS011;43150;50.986;18.208;2023-03-23T16:22:52;8.60;;;7.10;;
57303;SDS011;43150;50.986;18.208;2023-03-23T16:25:18;15.20;;;9.40;;
57303;SDS011;43150;50.986;18.208;2023-03-23T16:27:44;10.20;;;7.10;;
57303;SDS011;43150;50.986;18.208;2023-03-23T16:30:22;12.50;;;8.50;;
57303;SDS011;43150;50.986;18.208;2023-03-23T16:32:48;18.60;;;14.70;;
57303;SDS011;43150;50.986;18.208;2023-03-23T16:35:14;14.80;;;12.80;;
57303;SDS011;43150;50.986;18.208;2023-03-23T16:37:46;15.60;;;11.50;;
57303;SDS011;43150;50.986;18.208;2023-03-23T16:42:40;11.70;;;7.20;;